sensor_id;sensor_type;location;lat;lon;timestamp;pressure;altitude;pressure_sealevel;temperature;humidity
64889;BME280;51386;53.082;8.816;2023-06-14T00:00:48;101684.34;;;24.47;36.09
64889;BME280;51386;53.082;8.816;2023-06-14T00:03:15;101685.06;;;24.42;35.90
64889;BME280;51386;53.082;8.816;2023-06-14T00:05:44;101690.69;;;24.41;36.12
64889;BME280;51386;53.082;8.816;2023-06-14T00:08:14;101683.91;;;24.38;36.11
64889;BME280;51386;53.082;8.816;2023-06-14T00:10:42;101691.19;;;24.38;36.56
64889;BME280;51386;53.082;8.816;2023-06-14T00:13:10;101698.69;;;24.36;36.43
64889;BME280;51386;53.082;8.816;2023-06-14T00:15:38;101692.72;;;24.34;36.36
64889;BME280;51386;53.082;8.816;2023-06-14T00:18:05;101691.91;;;24.33;36.66
64889;BME280;51386;53.082;8.816;2023-06-14T00:20:33;101688.66;;;24.31;36.36
64889;BME280;51386;53.082;8.816;2023-06-14T00:23:01;101687.81;;;24.31;36.53
64889;BME280;51386;53.082;8.816;2023-06-14T00:25:28;101693.19;;;24.31;36.77
64889;BME280;51386;53.082;8.816;2023-06-14T00:27:57;101691.56;;;24.30;36.88
64889;BME280;51386;53.082;8.816;2023-06-14T00:30:25;101696.38;;;24.28;36.84
64889;BME280;51386;53.082;8.816;2023-06-14T00:32:57;101698.16;;;24.22;37.05
64889;BME280;51386;53.082;8.816;2023-06-14T00:35:25;101699.69;;;24.18;37.10
64889;BME280;51386;53.082;8.816;2023-06-14T00:37:52;101695.03;;;24.13;36.96
64889;BME280;51386;53.082;8.816;2023-06-14T00:40:21;101700.31;;;24.08;37.29
64889;BME280;51386;53.082;8.816;2023-06-14T00:42:48;101699.13;;;24.04;37.34
64889;BME280;51386;53.082;8.816;2023-06-14T00:45:17;101700.91;;;23.99;37.49
64889;BME280;51386;53.082;8.816;2023-06-14T00:47:46;101704.88;;;23.96;37.50
64889;BME280;51386;53.082;8.816;2023-06-14T00:50:14;101705.59;;;23.92;37.61
64889;BME280;51386;53.082;8.816;2023-06-14T00:52:41;101706.31;;;23.87;37.55
64889;BME280;51386;53.082;8.816;2023-06-14T00:55:09;101703.06;;;23.85;37.71
64889;BME280;51386;53.082;8.816;2023-06-14T00:57:36;101704.59;;;23.81;37.94
64889;BME280;51386;53.082;8.816;2023-06-14T01:00:06;101708.56;;;23.79;37.82
64889;BME280;51386;53.082;8.816;2023-06-14T01:02:56;101718.19;;;23.75;37.86
64889;BME280;51386;53.082;8.816;2023-06-14T01:05:42;101715.59;;;23.68;38.22
64889;BME280;51386;53.082;8.816;2023-06-14T01:08:23;101719.25;;;23.62;38.38
64889;BME280;51386;53.082;8.816;2023-06-14T01:10:59;101723.56;;;23.63;38.46
64889;BME280;51386;53.082;8.816;2023-06-14T01:13:34;101721.94;;;23.62;38.38
64889;BME280;51386;53.082;8.816;2023-06-14T01:16:03;101714.34;;;23.59;38.49
64889;BME280;51386;53.082;8.816;2023-06-14T01:18:33;101718.09;;;23.58;38.51
64889;BME280;51386;53.082;8.816;2023-06-14T01:21:01;101720.78;;;23.58;38.61
64889;BME280;51386;53.082;8.816;2023-06-14T01:23:33;101726.16;;;23.58;39.07
64889;BME280;51386;53.082;8.816;2023-06-14T01:26:01;101722.41;;;23.59;38.40
64889;BME280;51386;53.082;8.816;2023-06-14T01:28:31;101722.41;;;23.59;38.56
64889;BME280;51386;53.082;8.816;2023-06-14T01:31:02;101723.38;;;23.53;38.56
64889;BME280;51386;53.082;8.816;2023-06-14T01:33:33;101721.59;;;23.47;38.77
64889;BME280;51386;53.082;8.816;2023-06-14T01:36:04;101731.19;;;23.43;38.96
64889;BME280;51386;53.082;8.816;2023-06-14T01:38:33;101720.44;;;23.43;39.28
64889;BME280;51386;53.082;8.816;2023-06-14T01:41:01;101735.16;;;23.40;39.10
64889;BME280;51386;53.082;8.816;2023-06-14T01:43:30;101734.59;;;23.38;39.31
64889;BME280;51386;53.082;8.816;2023-06-14T01:45:59;101738.91;;;23.39;39.55
64889;BME280;51386;53.082;8.816;2023-06-14T01:48:27;101732.13;;;23.37;39.42
64889;BME280;51386;53.082;8.816;2023-06-14T01:50:54;101738.16;;;23.32;39.57
64889;BME280;51386;53.082;8.816;2023-06-14T01:53:21;101730.81;;;23.28;39.66
64889;BME280;51386;53.082;8.816;2023-06-14T01:55:49;101731.06;;;23.26;39.81
64889;BME280;51386;53.082;8.816;2023-06-14T01:58:16;101736.66;;;23.25;39.91
64889;BME280;51386;53.082;8.816;2023-06-14T02:00:43;101737.13;;;23.22;39.91
64889;BME280;51386;53.082;8.816;2023-06-14T02:03:11;101740.03;;;23.20;40.20
64889;BME280;51386;53.082;8.816;2023-06-14T02:05:39;101733.88;;;23.20;39.87
64889;BME280;51386;53.082;8.816;2023-06-14T02:08:07;101730.34;;;23.19;40.17
64889;BME280;51386;53.082;8.816;2023-06-14T02:10:34;101732.22;;;23.19;39.86
64889;BME280;51386;53.082;8.816;2023-06-14T02:13:04;101730.56;;;23.18;39.99
64889;BME280;51386;53.082;8.816;2023-06-14T02:15:31;101732.66;;;23.16;39.64
64889;BME280;51386;53.082;8.816;2023-06-14T02:18:02;101733.16;;;23.13;40.14
64889;BME280;51386;53.082;8.816;2023-06-14T02:20:30;101734.66;;;23.09;40.25
64889;BME280;51386;53.082;8.816;2023-06-14T02:22:57;101731.97;;;23.09;40.22
64889;BME280;51386;53.082;8.816;2023-06-14T02:25:24;101739.44;;;23.07;40.27
64889;BME280;51386;53.082;8.816;2023-06-14T02:27:51;101741.53;;;23.05;40.40
64889;BME280;51386;53.082;8.816;2023-06-14T02:30:20;101733.72;;;23.03;40.57
64889;BME280;51386;53.082;8.816;2023-06-14T02:32:47;101737.22;;;23.04;40.39
64889;BME280;51386;53.082;8.816;2023-06-14T02:35:15;101741.31;;;23.06;40.65
64889;BME280;51386;53.082;8.816;2023-06-14T02:37:42;101747.28;;;23.08;40.40
64889;BME280;51386;53.082;8.816;2023-06-14T02:40:10;101745.97;;;23.11;40.49
64889;BME280;51386;53.082;8.816;2023-06-14T02:42:38;101753.44;;;23.09;40.58
64889;BME280;51386;53.082;8.816;2023-06-14T02:45:07;101743.19;;;23.06;40.52
64889;BME280;51386;53.082;8.816;2023-06-14T02:47:35;101749.03;;;23.03;40.80
64889;BME280;51386;53.082;8.816;2023-06-14T02:50:03;101745.19;;;22.99;40.74
64889;BME280;51386;53.082;8.816;2023-06-14T02:52:30;101742.34;;;22.94;40.93
64889;BME280;51386;53.082;8.816;2023-06-14T02:55:00;101754.13;;;22.92;40.95
64889;BME280;51386;53.082;8.816;2023-06-14T02:57:27;101753.56;;;22.90;41.20
64889;BME280;51386;53.082;8.816;2023-06-14T02:59:54;101759.97;;;22.89;41.46
64889;BME280;51386;53.082;8.816;2023-06-14T03:02:21;101759.16;;;22.89;41.26
64889;BME280;51386;53.082;8.816;2023-06-14T03:04:50;101765.81;;;22.86;40.94
64889;BME280;51386;53.082;8.816;2023-06-14T03:07:17;101768.72;;;22.85;41.16
64889;BME280;51386;53.082;8.816;2023-06-14T03:09:49;101771.63;;;22.83;40.93
64889;BME280;51386;53.082;8.816;2023-06-14T03:12:16;101766.72;;;22.80;40.99
64889;BME280;51386;53.082;8.816;2023-06-14T03:14:43;101778.38;;;22.74;40.80
64889;BME280;51386;53.082;8.816;2023-06-14T03:17:13;101773.91;;;22.68;41.63
64889;BME280;51386;53.082;8.816;2023-06-14T03:19:40;101775.44;;;22.64;41.33
64889;BME280;51386;53.082;8.816;2023-06-14T03:22:09;101781.03;;;22.63;41.70
64889;BME280;51386;53.082;8.816;2023-06-14T03:24:38;101777.53;;;22.62;41.33
64889;BME280;51386;53.082;8.816;2023-06-14T03:27:05;101781.84;;;22.63;41.58
64889;BME280;51386;53.082;8.816;2023-06-14T03:29:32;101783.72;;;22.63;41.81
64889;BME280;51386;53.082;8.816;2023-06-14T03:32:02;101786.63;;;22.61;41.53
64889;BME280;51386;53.082;8.816;2023-06-14T03:34:29;101791.38;;;22.59;42.07
64889;BME280;51386;53.082;8.816;2023-06-14T03:36:56;101789.72;;;22.58;41.51
64889;BME280;51386;53.082;8.816;2023-06-14T03:39:24;101795.09;;;22.58;41.65
64889;BME280;51386;53.082;8.816;2023-06-14T03:41:51;101790.78;;;22.57;41.76
64889;BME280;51386;53.082;8.816;2023-06-14T03:44:18;101788.69;;;22.59;41.53
64889;BME280;51386;53.082;8.816;2023-06-14T03:46:46;101788.47;;;22.61;41.67
64889;BME280;51386;53.082;8.816;2023-06-14T03:49:14;101789.31;;;22.61;41.84
64889;BME280;51386;53.082;8.816;2023-06-14T03:51:43;101797.78;;;22.58;41.93
64889;BME280;51386;53.082;8.816;2023-06-14T03:54:10;101793.72;;;22.56;42.53
64889;BME280;51386;53.082;8.816;2023-06-14T03:56:58;101799.72;;;22.51;41.62
64889;BME280;51386;53.082;8.816;2023-06-14T03:59:25;101793.56;;;22.51;42.24
64889;BME280;51386;53.082;8.816;2023-06-14T04:01:54;101794.84;;;22.48;42.21
64889;BME280;51386;53.082;8.816;2023-06-14T04:04:21;101798.34;;;22.49;41.93
64889;BME280;51386;53.082;8.816;2023-06-14T04:06:56;101799.97;;;22.50;42.26
64889;BME280;51386;53.082;8.816;2023-06-14T04:09:25;101799.72;;;22.51;42.06
64889;BME280;51386;53.082;8.816;2023-06-14T04:11:52;101811.09;;;22.53;42.01
64889;BME280;51386;53.082;8.816;2023-06-14T04:14:20;101806.75;;;22.52;42.07
64889;BME280;51386;53.082;8.816;2023-06-14T04:16:49;101813.75;;;22.53;42.20
64889;BME280;51386;53.082;8.816;2023-06-14T04:19:16;101811.66;;;22.55;42.15
64889;BME280;51386;53.082;8.816;2023-06-14T04:21:43;101806.88;;;22.57;42.33
64889;BME280;51386;53.082;8.816;2023-06-14T04:24:10;101810.41;;;22.58;42.04
64889;BME280;51386;53.082;8.816;2023-06-14T04:26:42;101820.31;;;22.57;42.15
64889;BME280;51386;53.082;8.816;2023-06-14T04:29:11;101826.94;;;22.55;42.17
64889;BME280;51386;53.082;8.816;2023-06-14T04:31:44;101824.50;;;22.53;41.97
64889;BME280;51386;53.082;8.816;2023-06-14T04:34:12;101825.28;;;22.54;42.02
64889;BME280;51386;53.082;8.816;2023-06-14T04:36:43;101834.41;;;22.53;42.42
64889;BME280;51386;53.082;8.816;2023-06-14T04:39:17;101829.88;;;22.53;42.58
64889;BME280;51386;53.082;8.816;2023-06-14T04:41:50;101831.13;;;22.51;41.75
64889;BME280;51386;53.082;8.816;2023-06-14T04:44:24;101833.00;;;22.50;42.32
64889;BME280;51386;53.082;8.816;2023-06-14T04:46:58;101833.22;;;22.49;42.41
64889;BME280;51386;53.082;8.816;2023-06-14T04:49:26;101838.13;;;22.52;42.06
64889;BME280;51386;53.082;8.816;2023-06-14T04:51:56;101834.16;;;22.54;42.12
64889;BME280;51386;53.082;8.816;2023-06-14T04:54:26;101828.59;;;22.56;42.06
64889;BME280;51386;53.082;8.816;2023-06-14T04:56:53;101819.25;;;22.58;42.51
64889;BME280;51386;53.082;8.816;2023-06-14T04:59:22;101825.22;;;22.60;42.33
64889;BME280;51386;53.082;8.816;2023-06-14T05:01:51;101836.78;;;22.61;41.98
64889;BME280;51386;53.082;8.816;2023-06-14T05:04:21;101825.84;;;22.62;41.95
64889;BME280;51386;53.082;8.816;2023-06-14T05:06:49;101835.53;;;22.63;42.27
64889;BME280;51386;53.082;8.816;2023-06-14T05:09:16;101833.47;;;22.65;41.98
64889;BME280;51386;53.082;8.816;2023-06-14T05:11:46;101828.69;;;22.67;41.77
64889;BME280;51386;53.082;8.816;2023-06-14T05:14:14;101835.66;;;22.68;41.80
64889;BME280;51386;53.082;8.816;2023-06-14T05:16:41;101834.19;;;22.72;41.68
64889;BME280;51386;53.082;8.816;2023-06-14T05:19:09;101838.50;;;22.73;41.96
64889;BME280;51386;53.082;8.816;2023-06-14T05:21:38;101834.78;;;22.74;41.98
64889;BME280;51386;53.082;8.816;2023-06-14T05:24:09;101849.59;;;22.77;42.20
64889;BME280;51386;53.082;8.816;2023-06-14T05:26:36;101844.38;;;22.82;41.86
64889;BME280;51386;53.082;8.816;2023-06-14T05:29:03;101839.81;;;22.82;41.82
64889;BME280;51386;53.082;8.816;2023-06-14T05:31:30;101847.66;;;22.84;41.79
64889;BME280;51386;53.082;8.816;2023-06-14T05:33:58;101850.09;;;22.85;42.06
64889;BME280;51386;53.082;8.816;2023-06-14T05:36:25;101851.28;;;22.89;41.83
64889;BME280;51386;53.082;8.816;2023-06-14T05:38:55;101851.06;;;22.91;42.03
64889;BME280;51386;53.082;8.816;2023-06-14T05:41:25;101849.41;;;22.90;41.84
64889;BME280;51386;53.082;8.816;2023-06-14T05:43:53;101858.28;;;22.90;41.83
64889;BME280;51386;53.082;8.816;2023-06-14T05:46:21;101868.09;;;22.97;41.41
64889;BME280;51386;53.082;8.816;2023-06-14T05:48:51;101868.38;;;23.07;41.31
64889;BME280;51386;53.082;8.816;2023-06-14T05:51:18;101860.84;;;23.15;41.14
64889;BME280;51386;53.082;8.816;2023-06-14T05:53:46;101868.19;;;23.20;41.39
64889;BME280;51386;53.082;8.816;2023-06-14T05:56:15;101869.81;;;23.21;40.85
64889;BME280;51386;53.082;8.816;2023-06-14T05:58:45;101865.66;;;23.25;41.16
64889;BME280;51386;53.082;8.816;2023-06-14T06:01:13;101871.94;;;23.30;41.17
64889;BME280;51386;53.082;8.816;2023-06-14T06:03:41;101876.03;;;23.33;41.03
64889;BME280;51386;53.082;8.816;2023-06-14T06:06:08;101870.84;;;23.38;41.01
64889;BME280;51386;53.082;8.816;2023-06-14T06:08:35;101874.00;;;23.46;40.59
64889;BME280;51386;53.082;8.816;2023-06-14T06:11:02;101878.66;;;23.51;40.42
64889;BME280;51386;53.082;8.816;2023-06-14T06:13:30;101874.50;;;23.55;40.30
64889;BME280;51386;53.082;8.816;2023-06-14T06:15:57;101878.34;;;23.59;40.13
64889;BME280;51386;53.082;8.816;2023-06-14T06:18:24;101872.06;;;23.65;39.88
64889;BME280;51386;53.082;8.816;2023-06-14T06:20:51;101880.81;;;23.72;39.52
64889;BME280;51386;53.082;8.816;2023-06-14T06:23:18;101866.09;;;23.75;39.13
64889;BME280;51386;53.082;8.816;2023-06-14T06:25:45;101871.81;;;23.78;39.17
64889;BME280;51386;53.082;8.816;2023-06-14T06:28:13;101878.72;;;23.86;39.29
64889;BME280;51386;53.082;8.816;2023-06-14T06:30:41;101877.75;;;23.92;39.02
64889;BME280;51386;53.082;8.816;2023-06-14T06:33:08;101882.56;;;24.01;38.57
64889;BME280;51386;53.082;8.816;2023-06-14T06:35:35;101887.03;;;24.07;38.64
64889;BME280;51386;53.082;8.816;2023-06-14T06:38:02;101884.47;;;24.12;38.75
64889;BME280;51386;53.082;8.816;2023-06-14T06:40:29;101888.66;;;24.20;38.54
64889;BME280;51386;53.082;8.816;2023-06-14T06:42:56;101892.38;;;24.31;38.28
64889;BME280;51386;53.082;8.816;2023-06-14T06:45:23;101883.47;;;24.42;38.07
64889;BME280;51386;53.082;8.816;2023-06-14T06:47:53;101889.53;;;24.49;37.58
64889;BME280;51386;53.082;8.816;2023-06-14T06:50:20;101894.56;;;24.57;37.66
64889;BME280;51386;53.082;8.816;2023-06-14T06:52:49;101896.88;;;24.65;37.25
64889;BME280;51386;53.082;8.816;2023-06-14T06:55:16;101887.09;;;24.75;37.31
64889;BME280;51386;53.082;8.816;2023-06-14T06:57:44;101888.63;;;24.83;36.78
64889;BME280;51386;53.082;8.816;2023-06-14T07:00:12;101890.34;;;24.89;37.05
64889;BME280;51386;53.082;8.816;2023-06-14T07:02:40;101894.22;;;24.93;36.96
64889;BME280;51386;53.082;8.816;2023-06-14T07:05:09;101897.09;;;25.03;36.24
64889;BME280;51386;53.082;8.816;2023-06-14T07:07:36;101899.88;;;25.08;36.03
64889;BME280;51386;53.082;8.816;2023-06-14T07:10:04;101901.72;;;25.19;35.68
64889;BME280;51386;53.082;8.816;2023-06-14T07:12:32;101901.81;;;25.24;35.14
64889;BME280;51386;53.082;8.816;2023-06-14T07:15:00;101902.69;;;25.30;34.83
64889;BME280;51386;53.082;8.816;2023-06-14T07:17:27;101902.56;;;25.36;34.08
64889;BME280;51386;53.082;8.816;2023-06-14T07:19:54;101897.22;;;25.41;33.63
64889;BME280;51386;53.082;8.816;2023-06-14T07:22:23;101903.09;;;25.50;33.54
64889;BME280;51386;53.082;8.816;2023-06-14T07:24:50;101897.53;;;25.57;33.42
64889;BME280;51386;53.082;8.816;2023-06-14T07:27:17;101900.78;;;25.59;32.98
64889;BME280;51386;53.082;8.816;2023-06-14T07:29:44;101903.47;;;25.59;32.86
64889;BME280;51386;53.082;8.816;2023-06-14T07:32:10;101904.13;;;25.66;33.26
64889;BME280;51386;53.082;8.816;2023-06-14T07:34:37;101899.47;;;25.78;33.74
64889;BME280;51386;53.082;8.816;2023-06-14T07:37:04;101892.59;;;25.87;33.13
64889;BME280;51386;53.082;8.816;2023-06-14T07:39:33;101889.41;;;25.90;32.91
64889;BME280;51386;53.082;8.816;2023-06-14T07:42:00;101900.00;;;25.96;33.29
64889;BME280;51386;53.082;8.816;2023-06-14T07:44:30;101892.91;;;26.07;32.72
64889;BME280;51386;53.082;8.816;2023-06-14T07:46:59;101894.69;;;26.18;32.75
64889;BME280;51386;53.082;8.816;2023-06-14T07:49:27;101892.69;;;26.30;32.59
64889;BME280;51386;53.082;8.816;2023-06-14T07:51:55;101894.34;;;26.31;32.37
64889;BME280;51386;53.082;8.816;2023-06-14T07:54:22;101895.47;;;26.35;32.09
64889;BME280;51386;53.082;8.816;2023-06-14T07:56:54;101902.75;;;26.35;31.99
64889;BME280;51386;53.082;8.816;2023-06-14T07:59:22;101904.63;;;26.34;32.29
64889;BME280;51386;53.082;8.816;2023-06-14T08:01:49;101903.06;;;26.38;31.52
64889;BME280;51386;53.082;8.816;2023-06-14T08:04:16;101915.41;;;26.34;31.35
64889;BME280;51386;53.082;8.816;2023-06-14T08:06:43;101907.28;;;26.29;31.90
64889;BME280;51386;53.082;8.816;2023-06-14T08:09:15;101903.56;;;26.35;31.73
64889;BME280;51386;53.082;8.816;2023-06-14T08:11:42;101903.06;;;26.38;31.21
64889;BME280;51386;53.082;8.816;2023-06-14T08:14:10;101911.53;;;26.47;31.50
64889;BME280;51386;53.082;8.816;2023-06-14T08:16:38;101915.47;;;26.77;31.29
64889;BME280;51386;53.082;8.816;2023-06-14T08:19:05;101911.41;;;27.60;30.06
64889;BME280;51386;53.082;8.816;2023-06-14T08:21:32;101908.09;;;28.89;28.10
64889;BME280;51386;53.082;8.816;2023-06-14T08:24:00;101903.47;;;30.35;26.06
64889;BME280;51386;53.082;8.816;2023-06-14T08:26:27;101894.91;;;31.78;24.99
64889;BME280;51386;53.082;8.816;2023-06-14T08:28:55;101909.50;;;32.82;22.78
64889;BME280;51386;53.082;8.816;2023-06-14T08:31:24;101901.63;;;33.82;22.36
64889;BME280;51386;53.082;8.816;2023-06-14T08:33:54;101904.84;;;34.80;20.98
64889;BME280;51386;53.082;8.816;2023-06-14T08:36:21;101907.22;;;35.53;20.32
64889;BME280;51386;53.082;8.816;2023-06-14T08:38:49;101893.97;;;36.08;19.97
64889;BME280;51386;53.082;8.816;2023-06-14T08:41:21;101897.50;;;36.90;19.11
64889;BME280;51386;53.082;8.816;2023-06-14T08:43:52;101898.72;;;37.70;18.48
64889;BME280;51386;53.082;8.816;2023-06-14T08:46:19;101898.25;;;38.43;17.90
64889;BME280;51386;53.082;8.816;2023-06-14T08:48:50;101891.84;;;39.34;17.71
64889;BME280;51386;53.082;8.816;2023-06-14T08:51:19;101897.13;;;39.96;16.30
64889;BME280;51386;53.082;8.816;2023-06-14T08:53:54;101903.69;;;40.04;16.25
64889;BME280;51386;53.082;8.816;2023-06-14T08:56:26;101905.69;;;40.03;16.37
64889;BME280;51386;53.082;8.816;2023-06-14T08:58:55;101901.59;;;40.37;16.38
64889;BME280;51386;53.082;8.816;2023-06-14T09:01:23;101895.31;;;40.76;15.88
64889;BME280;51386;53.082;8.816;2023-06-14T09:03:52;101901.09;;;41.39;14.97
64889;BME280;51386;53.082;8.816;2023-06-14T09:06:22;101904.84;;;41.62;14.72
64889;BME280;51386;53.082;8.816;2023-06-14T09:08:50;101908.13;;;41.52;14.90
64889;BME280;51386;53.082;8.816;2023-06-14T09:11:18;101913.91;;;41.31;14.29
64889;BME280;51386;53.082;8.816;2023-06-14T09:13:46;101923.94;;;41.24;14.95
64889;BME280;51386;53.082;8.816;2023-06-14T09:16:13;101907.56;;;41.31;14.82
64889;BME280;51386;53.082;8.816;2023-06-14T09:18:42;101908.75;;;41.45;14.45
64889;BME280;51386;53.082;8.816;2023-06-14T09:21:17;101906.03;;;41.76;14.72
64889;BME280;51386;53.082;8.816;2023-06-14T09:23:46;101908.13;;;42.30;14.50
64889;BME280;51386;53.082;8.816;2023-06-14T09:26:16;101899.69;;;42.77;13.49
64889;BME280;51386;53.082;8.816;2023-06-14T09:28:45;101904.75;;;42.90;13.27
64889;BME280;51386;53.082;8.816;2023-06-14T09:31:14;101897.06;;;42.84;13.38
64889;BME280;51386;53.082;8.816;2023-06-14T09:33:42;101894.88;;;42.74;13.62
64889;BME280;51386;53.082;8.816;2023-06-14T09:36:17;101895.00;;;42.81;13.78
64889;BME280;51386;53.082;8.816;2023-06-14T09:38:52;101892.97;;;42.97;12.93
64889;BME280;51386;53.082;8.816;2023-06-14T09:41:20;101893.34;;;42.95;13.07
64889;BME280;51386;53.082;8.816;2023-06-14T09:43:48;101894.91;;;42.93;13.53
64889;BME280;51386;53.082;8.816;2023-06-14T09:46:17;101891.50;;;42.84;13.40
64889;BME280;51386;53.082;8.816;2023-06-14T09:48:45;101889.09;;;43.01;13.05
64889;BME280;51386;53.082;8.816;2023-06-14T09:51:16;101891.03;;;43.20;13.01
64889;BME280;51386;53.082;8.816;2023-06-14T09:53:48;101893.63;;;43.51;13.29
64889;BME280;51386;53.082;8.816;2023-06-14T09:56:23;101889.91;;;43.66;12.96
64889;BME280;51386;53.082;8.816;2023-06-14T09:58:56;101891.16;;;43.46;12.65
64889;BME280;51386;53.082;8.816;2023-06-14T10:01:35;101889.88;;;43.21;12.97
64889;BME280;51386;53.082;8.816;2023-06-14T10:04:05;101884.06;;;42.88;13.15
64889;BME280;51386;53.082;8.816;2023-06-14T10:06:40;101874.81;;;43.22;13.03
64889;BME280;51386;53.082;8.816;2023-06-14T10:09:10;101882.69;;;43.85;12.42
64889;BME280;51386;53.082;8.816;2023-06-14T10:11:38;101878.19;;;44.25;12.45
64889;BME280;51386;53.082;8.816;2023-06-14T10:14:12;101891.03;;;44.37;12.33
64889;BME280;51386;53.082;8.816;2023-06-14T10:16:50;101875.78;;;44.50;11.99
64889;BME280;51386;53.082;8.816;2023-06-14T10:19:24;101887.44;;;43.61;11.95
64889;BME280;51386;53.082;8.816;2023-06-14T10:22:01;101883.31;;;43.52;12.84
64889;BME280;51386;53.082;8.816;2023-06-14T10:24:35;101879.63;;;43.44;12.57
64889;BME280;51386;53.082;8.816;2023-06-14T10:27:07;101877.66;;;42.65;13.24
64889;BME280;51386;53.082;8.816;2023-06-14T10:30:03;101873.34;;;42.32;13.37
64889;BME280;51386;53.082;8.816;2023-06-14T10:32:32;101876.72;;;41.60;14.15
64889;BME280;51386;53.082;8.816;2023-06-14T10:35:01;101873.50;;;40.59;14.82
64889;BME280;51386;53.082;8.816;2023-06-14T10:37:29;101871.59;;;39.63;15.55
64889;BME280;51386;53.082;8.816;2023-06-14T10:39:57;101883.00;;;38.67;16.52
64889;BME280;51386;53.082;8.816;2023-06-14T10:42:32;101879.00;;;37.68;17.01
64889;BME280;51386;53.082;8.816;2023-06-14T10:45:00;101871.06;;;36.94;17.77
64889;BME280;51386;53.082;8.816;2023-06-14T10:47:29;101869.38;;;36.42;18.42
64889;BME280;51386;53.082;8.816;2023-06-14T10:50:05;101863.78;;;35.68;19.32
64889;BME280;51386;53.082;8.816;2023-06-14T10:52:38;101854.25;;;35.13;19.58
64889;BME280;51386;53.082;8.816;2023-06-14T10:55:08;101866.16;;;34.72;20.00
64889;BME280;51386;53.082;8.816;2023-06-14T10:57:38;101860.13;;;34.35;20.11
64889;BME280;51386;53.082;8.816;2023-06-14T11:00:18;101863.00;;;34.16;20.50
64889;BME280;51386;53.082;8.816;2023-06-14T11:03:11;101854.56;;;33.99;20.51
64889;BME280;51386;53.082;8.816;2023-06-14T11:05:50;101855.88;;;33.88;20.60
64889;BME280;51386;53.082;8.816;2023-06-14T11:09:04;101859.09;;;33.76;21.11
64889;BME280;51386;53.082;8.816;2023-06-14T11:11:39;101843.72;;;33.94;20.40
64889;BME280;51386;53.082;8.816;2023-06-14T11:14:09;101846.34;;;33.58;20.61
64889;BME280;51386;53.082;8.816;2023-06-14T11:16:37;101860.44;;;33.47;21.21
64889;BME280;51386;53.082;8.816;2023-06-14T11:19:05;101861.56;;;33.13;20.88
64889;BME280;51386;53.082;8.816;2023-06-14T11:21:32;101845.47;;;32.93;21.13
64889;BME280;51386;53.082;8.816;2023-06-14T11:24:01;101843.19;;;32.82;21.39
64889;BME280;51386;53.082;8.816;2023-06-14T11:26:31;101845.28;;;32.71;21.21
64889;BME280;51386;53.082;8.816;2023-06-14T11:29:01;101846.25;;;32.61;21.28
64889;BME280;51386;53.082;8.816;2023-06-14T11:31:29;101843.75;;;32.41;21.81
64889;BME280;51386;53.082;8.816;2023-06-14T11:33:58;101837.16;;;32.24;21.35
64889;BME280;51386;53.082;8.816;2023-06-14T11:36:27;101825.72;;;32.03;21.24
64889;BME280;51386;53.082;8.816;2023-06-14T11:39:03;101820.66;;;31.91;21.96
64889;BME280;51386;53.082;8.816;2023-06-14T11:41:37;101827.78;;;32.35;21.96
64889;BME280;51386;53.082;8.816;2023-06-14T11:44:05;101832.91;;;32.18;22.51
64889;BME280;51386;53.082;8.816;2023-06-14T11:46:33;101823.38;;;32.15;22.59
64889;BME280;51386;53.082;8.816;2023-06-14T11:49:00;101825.75;;;32.22;22.90
64889;BME280;51386;53.082;8.816;2023-06-14T11:51:30;101827.31;;;32.28;22.81
64889;BME280;51386;53.082;8.816;2023-06-14T11:53:58;101828.47;;;32.22;22.67
64889;BME280;51386;53.082;8.816;2023-06-14T11:56:26;101826.41;;;32.14;22.69
64889;BME280;51386;53.082;8.816;2023-06-14T11:58:54;101827.06;;;32.05;22.54
64889;BME280;51386;53.082;8.816;2023-06-14T12:01:24;101829.31;;;31.98;22.81
64889;BME280;51386;53.082;8.816;2023-06-14T12:03:54;101822.22;;;31.97;22.25
64889;BME280;51386;53.082;8.816;2023-06-14T12:06:29;101818.44;;;31.93;22.45
64889;BME280;51386;53.082;8.816;2023-06-14T12:09:03;101815.16;;;31.96;23.03
64889;BME280;51386;53.082;8.816;2023-06-14T12:11:35;101810.75;;;32.00;23.12
64889;BME280;51386;53.082;8.816;2023-06-14T12:14:04;101814.59;;;31.99;22.96
64889;BME280;51386;53.082;8.816;2023-06-14T12:16:34;101818.66;;;32.02;22.84
64889;BME280;51386;53.082;8.816;2023-06-14T12:19:12;101811.56;;;32.01;22.19
64889;BME280;51386;53.082;8.816;2023-06-14T12:21:40;101807.97;;;32.05;22.77
64889;BME280;51386;53.082;8.816;2023-06-14T12:24:09;101810.75;;;32.00;22.52
64889;BME280;51386;53.082;8.816;2023-06-14T12:26:41;101810.28;;;31.93;22.92
64889;BME280;51386;53.082;8.816;2023-06-14T12:29:09;101810.84;;;31.90;22.43
64889;BME280;51386;53.082;8.816;2023-06-14T12:31:37;101806.94;;;31.78;22.80
64889;BME280;51386;53.082;8.816;2023-06-14T12:34:04;101809.88;;;31.81;22.64
64889;BME280;51386;53.082;8.816;2023-06-14T12:36:31;101816.78;;;31.97;22.89
64889;BME280;51386;53.082;8.816;2023-06-14T12:38:59;101804.00;;;32.17;22.77
64889;BME280;51386;53.082;8.816;2023-06-14T12:41:26;101805.50;;;32.28;22.46
64889;BME280;51386;53.082;8.816;2023-06-14T12:43:55;101810.72;;;32.24;22.91
64889;BME280;51386;53.082;8.816;2023-06-14T12:46:24;101811.47;;;32.11;22.44
64889;BME280;51386;53.082;8.816;2023-06-14T12:48:52;101814.00;;;32.02;23.14
64889;BME280;51386;53.082;8.816;2023-06-14T12:51:19;101811.91;;;31.94;23.46
64889;BME280;51386;53.082;8.816;2023-06-14T12:53:46;101815.78;;;31.88;23.10
64889;BME280;51386;53.082;8.816;2023-06-14T12:56:13;101817.47;;;31.84;23.56
64889;BME280;51386;53.082;8.816;2023-06-14T12:58:40;101807.97;;;31.82;23.27
64889;BME280;51386;53.082;8.816;2023-06-14T13:01:08;101810.16;;;31.80;22.80